Time;durP1;ratioP1;P1;durP2;ratioP2;P2;SDS_P1;SDS_P2;PMS_P1;PMS_P2;Temp;Humidity;BMP_temperature;BMP_pressure;BME280_temperature;BME280_humidity;BME280_pressure;Samples;Min_cycle;Max_cycle;Signal;HPM_P1;HPM_P2
2022/05/06 00:00:52;;;;;;;;;11.00;7.00;;;;;20.32;38.81;102039.03;5078963;28;61060;-57
2022/05/06 00:03:17;;;;;;;;;9.75;7.50;;;;;20.33;38.81;102046.00;5079702;27;45224;-56
2022/05/06 00:05:43;;;;;;;;;9.67;8.67;;;;;20.32;38.66;102038.16;5078779;28;58957;-53
2022/05/06 00:08:10;;;;;;;;;9.33;7.00;;;;;20.31;38.81;102045.19;5079189;28;61107;-56
2022/05/06 00:10:36;;;;;;;;;6.75;6.75;;;;;20.31;38.68;102050.47;5079527;28;45390;-58
2022/05/06 00:13:01;;;;;;;;;8.00;8.00;;;;;20.31;39.18;102046.97;5079477;28;45490;-53
2022/05/06 00:15:26;;;;;;;;;8.25;8.25;;;;;20.32;38.83;102056.56;5079119;28;46114;-55
2022/05/06 00:17:52;;;;;;;;;6.00;6.00;;;;;20.31;39.43;102047.84;5079192;28;45249;-53
2022/05/06 00:20:17;;;;;;;;;8.75;8.00;;;;;20.31;39.41;102045.19;5079269;28;45236;-53
2022/05/06 00:22:44;;;;;;;;;7.25;7.25;;;;;20.31;39.49;102042.56;5079811;28;45967;-57
2022/05/06 00:25:10;;;;;;;;;6.25;5.00;;;;;20.30;39.33;102046.13;5079305;28;46923;-58
2022/05/06 00:27:43;;;;;;;;;8.00;8.00;;;;;20.31;39.09;102042.56;5077746;28;45383;-57
2022/05/06 00:30:09;;;;;;;;;8.50;7.25;;;;;20.31;39.42;102047.84;5079658;27;45845;-59
2022/05/06 00:32:35;;;;;;;;;7.75;7.75;;;;;20.29;39.42;102043.50;5078016;28;45513;-57
2022/05/06 00:35:00;;;;;;;;;9.00;8.00;;;;;20.30;39.57;102045.22;5078622;27;54551;-53
2022/05/06 00:37:26;;;;;;;;;10.75;7.00;;;;;20.30;39.09;102046.13;5078917;28;45493;-57
2022/05/06 00:39:51;;;;;;;;;7.50;7.50;;;;;20.31;38.95;102041.69;5079058;28;45306;-58
2022/05/06 00:42:17;;;;;;;;;9.00;9.00;;;;;20.31;38.87;102039.94;5079405;27;45256;-58
2022/05/06 00:44:42;;;;;;;;;8.50;8.00;;;;;20.31;39.08;102050.47;5078454;28;61004;-58
2022/05/06 00:47:09;;;;;;;;;9.50;9.50;;;;;20.31;39.29;102045.19;5077605;28;45834;-58
2022/05/06 00:49:37;;;;;;;;;6.75;6.75;;;;;20.31;39.54;102042.56;5079121;27;45339;-56
2022/05/06 00:52:04;;;;;;;;;8.00;7.75;;;;;20.31;39.13;102045.19;5078666;28;45520;-54
2022/05/06 00:54:31;;;;;;;;;11.00;8.00;;;;;20.31;39.54;102046.97;5078640;27;46158;-58
2022/05/06 00:56:58;;;;;;;;;9.75;9.00;;;;;20.30;39.56;102045.22;5078710;27;45423;-57
2022/05/06 00:59:23;;;;;;;;;9.25;8.50;;;;;20.30;39.43;102038.22;5078737;27;45381;-58
2022/05/06 01:01:48;;;;;;;;;8.00;8.00;;;;;20.31;39.06;102045.19;5078897;28;45433;-54
2022/05/06 01:04:17;;;;;;;;;7.75;7.00;;;;;20.31;39.33;102039.06;5078565;28;45941;-49
2022/05/06 01:06:44;;;;;;;;;8.75;7.75;;;;;20.27;39.07;102030.41;5078136;27;45812;-56
2022/05/06 01:09:15;;;;;;;;;7.75;7.00;;;;;20.31;39.31;102046.97;5078521;27;45381;-58
2022/05/06 01:11:41;;;;;;;;;9.00;8.25;;;;;20.29;39.02;102036.50;5079059;27;45607;-58
2022/05/06 01:14:07;;;;;;;;;8.50;8.50;;;;;20.29;39.26;102039.13;5078094;27;46291;-58
2022/05/06 01:16:34;;;;;;;;;10.25;8.00;;;;;20.30;39.56;102038.22;5078259;27;45317;-58
2022/05/06 01:18:59;;;;;;;;;8.00;8.00;;;;;20.24;39.12;102030.50;5078537;27;45336;-59
2022/05/06 01:21:27;;;;;;;;;9.25;8.00;;;;;20.28;39.26;102037.41;5078540;27;45461;-58
2022/05/06 01:23:52;;;;;;;;;8.75;8.75;;;;;20.29;39.74;102038.25;5078128;27;47046;-55
2022/05/06 01:26:18;;;;;;;;;9.75;9.75;;;;;20.27;39.29;102033.03;5078071;27;45415;-58
2022/05/06 01:28:44;;;;;;;;;10.75;8.75;;;;;20.27;39.40;102035.69;5077310;28;45748;-57
2022/05/06 01:31:19;;;;;;;;;9.75;8.50;;;;;20.27;39.28;102035.69;5078388;27;45259;-54
2022/05/06 01:33:54;;;;;;;;;8.00;8.00;;;;;20.28;39.14;102039.19;5078460;27;45283;-56
2022/05/06 01:36:22;;;;;;;;;7.75;6.25;;;;;20.27;39.75;102046.22;5077907;27;45758;-54
2022/05/06 01:38:52;;;;;;;;;9.25;8.50;;;;;20.26;39.59;102039.22;5078214;27;45338;-54
2022/05/06 01:41:21;;;;;;;;;11.50;10.50;;;;;20.26;39.63;102041.84;5078155;27;45636;-51
2022/05/06 01:43:52;;;;;;;;;9.00;7.25;;;;;20.26;39.34;102028.69;5078005;27;46994;-58
2022/05/06 01:46:21;;;;;;;;;9.50;8.25;;;;;20.26;39.32;102027.84;5077834;27;45759;-52
2022/05/06 01:48:48;;;;;;;;;9.50;8.25;;;;;20.26;39.77;102028.69;5078117;27;45350;-54
2022/05/06 01:51:15;;;;;;;;;8.50;8.00;;;;;20.24;39.58;102030.50;5078276;28;45532;-54
2022/05/06 01:53:42;;;;;;;;;9.25;7.75;;;;;20.24;39.94;102030.50;5093233;27;47084;-56
2022/05/06 01:56:08;;;;;;;;;9.00;8.00;;;;;20.22;39.77;102032.38;5077727;28;45890;-58
2022/05/06 01:58:34;;;;;;;;;8.75;7.75;;;;;20.22;39.36;102029.72;5078017;27;45302;-58
2022/05/06 02:00:59;;;;;;;;;10.25;8.00;;;;;20.24;39.25;102036.66;5077922;27;45468;-57
2022/05/06 02:06:09;;;;;;;;;12.25;10.00;;;;;20.24;40.03;102035.78;5077472;28;45359;-58
2022/05/06 02:08:34;;;;;;;;;9.75;9.25;;;;;20.22;39.73;102035.84;5077200;28;45493;-58
2022/05/06 02:11:01;;;;;;;;;9.25;9.25;;;;;20.24;39.82;102043.69;5077692;27;45405;-54
2022/05/06 02:13:26;;;;;;;;;9.00;9.00;;;;;20.22;39.87;102035.00;5077123;27;47057;-57
2022/05/06 02:15:51;;;;;;;;;8.50;8.50;;;;;20.20;39.66;102035.03;5077442;27;45287;-54
2022/05/06 02:18:17;;;;;;;;;10.50;8.25;;;;;20.20;40.00;102039.44;5077871;27;45268;-58
2022/05/06 02:20:42;;;;;;;;;10.00;10.00;;;;;20.20;39.68;102040.28;5077513;27;45222;-58
2022/05/06 02:23:08;;;;;;;;;8.00;8.00;;;;;20.21;39.61;102036.75;5075997;28;47374;-58
2022/05/06 02:25:35;;;;;;;;;9.50;8.50;;;;;20.20;39.66;102034.19;5076794;28;45515;-56
2022/05/06 02:28:01;;;;;;;;;9.00;9.00;;;;;20.22;39.50;102042.91;5077282;27;45402;-57
2022/05/06 02:33:14;;;;;;;;;8.25;8.25;;;;;20.21;39.51;102035.91;5077054;28;45653;-56
2022/05/06 02:35:41;;;;;;;;;8.00;8.00;;;;;20.19;39.92;102035.09;5077079;27;45834;-54
2022/05/06 02:38:08;;;;;;;;;10.75;10.00;;;;;20.19;39.75;102027.19;5077200;27;45320;-55
2022/05/06 02:40:37;;;;;;;;;8.00;8.00;;;;;20.20;39.59;102031.56;5077400;28;45305;-57
2022/05/06 02:43:03;;;;;;;;;9.75;9.75;;;;;20.19;39.63;102032.47;5076831;27;45413;-51
2022/05/06 02:45:29;;;;;;;;;8.25;8.25;;;;;20.20;39.51;102034.19;5076961;27;45854;-51
2022/05/06 02:47:54;;;;;;;;;7.25;7.25;;;;;20.20;39.63;102040.28;5077014;27;45449;-58
2022/05/06 02:50:20;;;;;;;;;8.75;8.00;;;;;20.20;39.85;102031.56;5077493;28;45576;-56
2022/05/06 02:52:45;;;;;;;;;9.75;8.00;;;;;20.19;40.04;102030.69;5076764;27;45352;-45
2022/05/06 02:55:11;;;;;;;;;10.25;9.75;;;;;20.19;40.12;102033.31;5075723;28;45341;-43
2022/05/06 02:57:36;;;;;;;;;10.00;9.00;;;;;20.20;39.71;102044.72;5076776;27;45382;-58
2022/05/06 03:00:03;;;;;;;;;11.00;9.50;;;;;20.18;39.80;102039.47;5077045;28;45615;-56
2022/05/06 03:02:29;;;;;;;;;8.75;8.75;;;;;20.17;39.82;102035.16;5076582;27;46363;-55
2022/05/06 03:04:55;;;;;;;;;13.00;10.25;;;;;20.19;39.67;102041.22;5076534;28;45483;-55
2022/05/06 03:07:20;;;;;;;;;12.50;10.00;;;;;20.18;39.95;102036.84;5076992;28;45276;-58
2022/05/06 03:09:46;;;;;;;;;11.00;10.00;;;;;20.19;39.74;102043.00;5076946;27;45654;-57
2022/05/06 03:12:11;;;;;;;;;10.00;10.00;;;;;20.19;39.58;102037.72;5076404;28;46153;-59
2022/05/06 03:14:36;;;;;;;;;9.75;8.25;;;;;20.19;39.88;102038.56;5076370;28;45421;-58
2022/05/06 03:17:02;;;;;;;;;10.00;10.00;;;;;20.16;40.14;102043.97;5076485;28;45391;-58
2022/05/06 03:19:27;;;;;;;;;10.25;9.00;;;;;20.19;40.09;102040.38;5076742;28;45533;-58
2022/05/06 03:21:56;;;;;;;;;9.00;9.00;;;;;20.19;39.99;102037.72;5075909;27;56841;-56
2022/05/06 03:24:22;;;;;;;;;11.50;9.50;;;;;20.19;40.04;102045.63;5076505;27;45707;-45
2022/05/06 03:26:48;;;;;;;;;9.75;9.00;;;;;20.19;39.98;102046.47;5076876;27;45293;-57
2022/05/06 03:29:13;;;;;;;;;9.67;9.00;;;;;20.18;39.93;102043.91;5076395;28;45653;-57
2022/05/06 03:31:39;;;;;;;;;9.25;9.25;;;;;20.17;39.96;102047.44;5076152;27;45949;-57
2022/05/06 03:34:05;;;;;;;;;9.00;9.00;;;;;20.16;40.15;102043.09;5076372;27;45358;-58
2022/05/06 03:36:33;;;;;;;;;9.00;9.00;;;;;20.17;40.09;102043.06;5076393;27;45317;-55
2022/05/06 03:38:59;;;;;;;;;11.50;9.75;;;;;20.15;39.96;102047.50;5076505;27;45580;-58
2022/05/06 03:41:24;;;;;;;;;10.50;10.50;;;;;20.17;39.58;102050.06;5076043;27;45638;-58
2022/05/06 03:43:50;;;;;;;;;12.50;10.50;;;;;20.16;39.87;102048.34;5076372;28;45282;-58
2022/05/06 03:46:15;;;;;;;;;9.75;9.75;;;;;20.17;40.22;102055.34;5075988;28;45931;-58
2022/05/06 03:48:40;;;;;;;;;14.25;11.00;;;;;20.17;39.89;102050.06;5076431;28;45580;-59
2022/05/06 03:51:22;;;;;;;;;9.50;9.50;;;;;20.14;39.96;102037.91;5076002;27;46153;-55
2022/05/06 03:53:52;;;;;;;;;9.00;9.00;;;;;20.15;40.03;102055.41;5075979;27;45479;-58
2022/05/06 03:56:18;;;;;;;;;13.25;10.50;;;;;20.15;40.36;102057.16;5075998;27;45408;-57
2022/05/06 03:58:44;;;;;;;;;10.00;10.00;;;;;20.15;39.56;102063.31;5075030;28;46013;-58
2022/05/06 04:01:10;;;;;;;;;9.75;8.00;;;;;20.15;39.97;102062.44;5075827;27;47072;-58
2022/05/06 04:03:38;;;;;;;;;9.00;8.00;;;;;20.12;39.86;102046.75;5075873;27;45317;-58
2022/05/06 04:06:04;;;;;;;;;12.75;12.00;;;;;20.14;40.34;102063.34;5075963;27;45405;-58
2022/05/06 04:08:30;;;;;;;;;8.25;8.25;;;;;20.14;40.24;102061.59;5076185;27;45516;-58
2022/05/06 04:10:56;;;;;;;;;10.50;10.50;;;;;20.10;39.75;102067.84;5075663;28;46084;-55
2022/05/06 04:13:21;;;;;;;;;7.00;6.00;;;;;20.13;39.63;102061.63;5075866;27;45240;-57
2022/05/06 04:15:47;;;;;;;;;9.75;9.25;;;;;20.13;39.82;102066.88;5075661;27;49635;-57
2022/05/06 04:18:13;;;;;;;;;11.00;11.00;;;;;20.13;39.81;102069.50;5076059;27;45231;-53
2022/05/06 04:23:29;;;;;;;;;9.25;8.75;;;;;20.12;40.06;102066.03;5076004;28;45865;-54
2022/05/06 04:25:55;;;;;;;;;10.50;9.25;;;;;20.11;39.95;102069.56;5076625;28;45401;-50
2022/05/06 04:28:21;;;;;;;;;10.00;10.00;;;;;20.11;39.95;102064.31;5079778;27;45514;-52
2022/05/06 04:30:46;;;;;;;;;14.00;9.75;;;;;20.11;40.12;102074.84;5079070;27;46405;-49
2022/05/06 04:33:11;;;;;;;;;9.00;9.00;;;;;20.10;40.01;102075.75;5079088;27;45357;-47
2022/05/06 04:35:37;;;;;;;;;11.50;9.75;;;;;20.11;40.25;102076.63;5079099;28;45448;-49
2022/05/06 04:38:02;;;;;;;;;9.25;9.25;;;;;20.12;40.30;102086.25;5079289;28;45510;-46
2022/05/06 04:40:28;;;;;;;;;10.50;9.25;;;;;20.10;39.67;102074.91;5078628;28;45227;-48
2022/05/06 04:42:53;;;;;;;;;10.25;9.75;;;;;20.12;40.22;102083.59;5079230;28;45342;-46
2022/05/06 04:45:18;;;;;;;;;8.75;8.00;;;;;20.10;40.16;102081.00;5078924;28;45301;-44
2022/05/06 04:47:44;;;;;;;;;13.75;12.25;;;;;20.10;40.03;102085.44;5079136;27;45655;-45
2022/05/06 04:50:09;;;;;;;;;11.00;10.75;;;;;20.10;40.37;102085.44;5078722;27;45288;-44
2022/05/06 04:52:34;;;;;;;;;7.00;7.00;;;;;20.10;39.71;102088.06;5078721;27;45389;-45
2022/05/06 04:55:00;;;;;;;;;13.25;11.50;;;;;20.09;39.98;102084.56;5078200;28;55580;-51
2022/05/06 04:57:25;;;;;;;;;9.50;9.50;;;;;20.08;39.97;102094.22;5079229;28;45514;-50
2022/05/06 04:59:51;;;;;;;;;10.25;10.00;;;;;20.08;40.04;102091.59;5078480;28;45280;-54
2022/05/06 05:02:17;;;;;;;;;15.25;10.50;;;;;20.10;39.78;102095.97;5078525;28;45264;-49
2022/05/06 05:04:44;;;;;;;;;9.75;9.00;;;;;20.08;40.07;102094.22;5078649;27;45493;-49
2022/05/06 05:07:10;;;;;;;;;11.75;10.25;;;;;20.08;40.00;102099.50;5078610;27;45228;-50
2022/05/06 05:09:35;;;;;;;;;15.75;13.50;;;;;20.09;39.74;102102.97;5078389;27;46152;-48
2022/05/06 05:12:01;;;;;;;;;12.25;10.75;;;;;20.08;39.75;102102.13;5078320;28;45330;-51
2022/05/06 05:14:26;;;;;;;;;11.25;9.50;;;;;20.08;40.04;102104.75;5078627;28;45431;-47
2022/05/06 05:16:51;;;;;;;;;16.50;10.75;;;;;20.08;40.07;102102.13;5078569;27;45592;-50
2022/05/06 05:19:17;;;;;;;;;13.25;10.00;;;;;20.09;40.16;102102.97;5078133;27;46031;-51
2022/05/06 05:21:42;;;;;;;;;10.25;10.00;;;;;20.07;39.97;102097.78;5078244;27;45442;-44
2022/05/06 05:24:08;;;;;;;;;10.75;10.75;;;;;20.07;40.09;102095.13;5078225;27;45240;-47
2022/05/06 05:26:34;;;;;;;;;10.75;8.75;;;;;20.08;40.26;102099.50;5078456;27;45214;-43
2022/05/06 05:29:00;;;;;;;;;12.00;11.00;;;;;20.08;39.78;102093.34;5078174;28;46933;-55
2022/05/06 05:31:25;;;;;;;;;11.50;10.50;;;;;20.08;39.92;102093.34;5078404;27;45385;-44
2022/05/06 05:33:52;;;;;;;;;11.25;11.25;;;;;20.09;40.03;102097.72;5078022;27;45668;-45
2022/05/06 05:36:18;;;;;;;;;11.50;11.50;;;;;20.08;40.10;102099.50;5078420;27;45352;-44
2022/05/06 05:38:43;;;;;;;;;13.00;9.00;;;;;20.09;39.72;102102.97;5076554;27;46303;-47
2022/05/06 05:41:08;;;;;;;;;8.00;8.00;;;;;20.07;40.25;102113.56;5077852;28;49236;-43
2022/05/06 05:49:02;;;;;;;;;10.75;10.00;;;;;20.08;40.45;102117.03;5077743;28;45665;-44
2022/05/06 05:51:27;;;;;;;;;9.75;9.75;;;;;20.08;40.22;102115.28;5078040;28;45322;-45
2022/05/06 05:53:53;;;;;;;;;11.75;11.75;;;;;20.08;39.84;102120.56;5077902;28;45336;-47
2022/05/06 05:56:18;;;;;;;;;12.75;11.50;;;;;20.07;39.87;102112.69;5077989;28;45567;-44
2022/05/06 05:58:44;;;;;;;;;9.75;9.75;;;;;20.08;39.91;102120.56;5076401;28;48127;-45
2022/05/06 06:01:10;;;;;;;;;13.75;12.75;;;;;20.08;40.40;102120.56;5077495;28;45916;-44
2022/05/06 06:03:35;;;;;;;;;10.00;10.00;;;;;20.08;40.03;102112.66;5077659;28;45767;-48
2022/05/06 06:06:01;;;;;;;;;13.75;13.25;;;;;20.10;39.82;102115.22;5077739;28;45535;-48
2022/05/06 06:08:26;;;;;;;;;12.50;11.25;;;;;20.11;40.04;102113.47;5077681;27;45996;-47
2022/05/06 06:10:53;;;;;;;;;13.25;11.75;;;;;20.11;39.92;102102.94;5077500;27;45385;-50
2022/05/06 06:13:18;;;;;;;;;14.25;13.25;;;;;20.10;39.83;102104.69;5077562;27;45666;-53
2022/05/06 06:15:44;;;;;;;;;16.50;11.75;;;;;20.10;40.12;102098.59;5077741;27;45216;-49
2022/05/06 06:18:09;;;;;;;;;12.25;10.00;;;;;20.11;39.99;102103.78;5077431;28;45366;-49
2022/05/06 06:20:34;;;;;;;;;13.75;12.50;;;;;20.12;39.78;102104.66;5077281;27;45349;-47
2022/05/06 06:23:00;;;;;;;;;12.50;12.50;;;;;20.12;39.79;102107.31;5077788;28;45366;-45
2022/05/06 06:25:26;;;;;;;;;14.75;11.75;;;;;20.11;40.36;102105.56;5077710;27;45361;-43
2022/05/06 06:27:51;;;;;;;;;14.50;12.50;;;;;20.11;40.13;102114.31;5077236;27;46265;-46
2022/05/06 06:30:17;;;;;;;;;14.25;10.50;;;;;20.11;40.34;102105.56;5077305;27;45297;-44
2022/05/06 06:32:42;;;;;;;;;14.25;11.50;;;;;20.12;40.43;102108.16;5077355;28;45334;-45
2022/05/06 06:35:07;;;;;;;;;10.50;9.00;;;;;20.12;40.09;102109.94;5077452;28;45293;-43
2022/05/06 06:37:33;;;;;;;;;12.75;11.00;;;;;20.12;40.08;102109.94;5077120;27;45329;-46
2022/05/06 06:39:58;;;;;;;;;10.50;10.00;;;;;20.14;40.24;102111.59;5077213;27;47874;-48
2022/05/06 06:42:25;;;;;;;;;14.75;13.50;;;;;20.15;40.04;102118.59;5077220;28;45429;-58
2022/05/06 06:44:50;;;;;;;;;15.00;13.00;;;;;20.15;40.16;102115.06;5076010;28;45324;-43
2022/05/06 06:47:16;;;;;;;;;12.75;12.75;;;;;20.16;40.15;102106.25;5076977;28;46150;-53
2022/05/06 06:49:41;;;;;;;;;10.75;10.75;;;;;20.15;39.95;102120.34;5076365;27;45443;-43
2022/05/06 06:52:07;;;;;;;;;11.50;10.00;;;;;20.16;40.40;102117.66;5077115;28;45301;-48
2022/05/06 06:54:32;;;;;;;;;15.50;13.50;;;;;20.17;40.54;102122.03;5077567;27;45502;-50
2022/05/06 06:56:57;;;;;;;;;13.50;11.50;;;;;20.16;40.16;102115.03;5076731;28;54406;-48
2022/05/06 06:59:23;;;;;;;;;11.50;10.00;;;;;20.18;40.16;102121.09;5076906;28;45260;-57
2022/05/06 07:01:48;;;;;;;;;12.50;12.50;;;;;20.19;40.35;102116.69;5077098;27;45227;-56
2022/05/06 07:04:13;;;;;;;;;13.25;13.25;;;;;20.19;40.23;102116.69;5076816;28;45191;-53
2022/05/06 07:12:07;;;;;;;;;14.00;11.25;;;;;20.20;40.11;102119.28;5076859;28;45370;-45
2022/05/06 07:14:35;;;;;;;;;10.75;9.00;;;;;20.20;40.11;102118.44;5076940;27;45280;-54
2022/05/06 07:17:02;;;;;;;;;15.25;12.50;;;;;20.21;40.33;102121.00;5076465;27;45460;-50
2022/05/06 07:19:28;;;;;;;;;11.00;10.25;;;;;20.22;40.64;102127.13;5076435;27;46010;-46
2022/05/06 07:21:54;;;;;;;;;7.50;7.50;;;;;20.22;39.94;102124.50;5075902;27;45475;-51
2022/05/06 07:24:20;;;;;;;;;13.25;12.75;;;;;20.22;40.17;102127.13;5076833;27;45210;-55
2022/05/06 07:26:49;;;;;;;;;15.25;13.00;;;;;20.24;40.40;102135.81;5076332;27;46120;-56
2022/05/06 07:29:14;;;;;;;;;13.25;13.25;;;;;20.18;40.38;102123.72;5076398;27;46075;-58
2022/05/06 07:31:41;;;;;;;;;12.25;10.25;;;;;20.27;40.48;102129.63;5076479;27;45413;-58
2022/05/06 07:34:07;;;;;;;;;14.25;10.75;;;;;20.28;39.95;102128.69;5076821;27;45483;-57
2022/05/06 07:36:33;;;;;;;;;12.00;12.00;;;;;20.27;40.67;102133.09;5076659;27;46061;-56
2022/05/06 07:38:59;;;;;;;;;14.25;12.00;;;;;20.28;40.38;102137.44;5076265;28;45298;-54
2022/05/06 07:41:25;;;;;;;;;12.00;10.50;;;;;20.29;40.23;102139.16;5076350;27;45283;-57
2022/05/06 07:43:50;;;;;;;;;11.50;11.00;;;;;20.29;39.89;102139.16;5076050;27;45238;-56
2022/05/06 07:46:16;;;;;;;;;13.00;11.25;;;;;20.28;40.41;102132.19;5076133;28;45443;-54
2022/05/06 07:48:41;;;;;;;;;13.00;12.75;;;;;20.30;40.48;102135.63;5076169;27;45353;-56
2022/05/06 07:51:06;;;;;;;;;15.25;10.00;;;;;20.31;40.01;102137.34;5076441;27;45314;-57
2022/05/06 07:53:32;;;;;;;;;10.25;9.75;;;;;20.25;40.39;102124.38;5076754;27;45251;-54
2022/05/06 07:55:57;;;;;;;;;13.75;10.00;;;;;20.31;39.99;102134.72;5076043;27;46244;-58
2022/05/06 07:58:23;;;;;;;;;8.25;8.25;;;;;20.33;40.49;102135.53;5075983;28;45231;-57
2022/05/06 08:00:50;;;;;;;;;16.00;13.50;;;;;20.33;40.21;102129.38;5076677;28;45350;-53
2022/05/06 08:06:00;;;;;;;;;11.25;11.25;;;;;20.35;40.21;102127.56;5079237;28;45321;-58
2022/05/06 08:08:27;;;;;;;;;12.75;12.75;;;;;20.35;40.64;102117.88;5079318;27;45352;-57
2022/05/06 08:10:53;;;;;;;;;13.75;12.75;;;;;20.36;40.17;102126.66;5079467;27;45580;-58
2022/05/06 08:13:19;;;;;;;;;12.25;11.25;;;;;20.36;40.58;102130.13;5079529;27;45498;-58
2022/05/06 08:15:45;;;;;;;;;12.25;10.75;;;;;20.36;40.52;102129.28;5079032;27;46606;-57
2022/05/06 08:18:11;;;;;;;;;13.00;9.50;;;;;20.38;40.66;102128.31;5079313;27;45314;-58
2022/05/06 08:20:38;;;;;;;;;14.50;13.25;;;;;20.37;40.45;102129.22;5079797;27;45281;-58
2022/05/06 08:23:04;;;;;;;;;16.50;12.00;;;;;20.38;40.57;102135.38;5079826;27;45461;-56
2022/05/06 08:25:29;;;;;;;;;11.00;10.50;;;;;20.39;40.23;102118.66;5078978;28;46246;-58
2022/05/06 08:27:54;;;;;;;;;12.00;9.50;;;;;20.38;40.46;102119.56;5079211;28;45296;-54
2022/05/06 08:30:20;;;;;;;;;11.75;9.00;;;;;20.39;40.64;102121.31;5079261;27;45390;-58
2022/05/06 08:32:45;;;;;;;;;9.00;9.00;;;;;20.41;40.59;102121.22;5079548;27;45519;-58
2022/05/06 08:35:11;;;;;;;;;10.75;10.75;;;;;20.41;40.81;102122.09;5078881;28;45260;-56
2022/05/06 08:37:40;;;;;;;;;11.00;9.25;;;;;20.42;40.73;102128.22;5078986;27;45337;-55
2022/05/06 08:40:07;;;;;;;;;10.00;8.75;;;;;20.43;40.16;102125.53;5079415;27;45335;-51
2022/05/06 08:42:32;;;;;;;;;11.00;9.00;;;;;20.42;40.33;102123.81;5079137;27;45274;-56
2022/05/06 08:53:11;;;;;;;;;11.50;9.25;;;;;20.45;40.65;102117.59;5079109;28;45171;-56
2022/05/06 08:55:37;;;;;;;;;13.50;9.25;;;;;20.44;40.54;102111.44;5079073;27;45282;-53
2022/05/06 08:58:05;;;;;;;;;11.50;9.75;;;;;20.44;40.88;102106.19;5078674;27;45386;-58
2022/05/06 09:00:30;;;;;;;;;10.00;9.75;;;;;20.48;40.24;102118.34;5077615;28;45358;-56
2022/05/06 09:02:56;;;;;;;;;11.25;9.00;;;;;20.48;40.37;102126.25;5078726;28;45374;-57
2022/05/06 09:05:21;;;;;;;;;10.75;9.00;;;;;20.49;40.06;102119.19;5076609;28;60855;-51
2022/05/06 09:07:58;;;;;;;;;8.25;8.25;;;;;20.48;40.63;102112.19;5078257;27;48891;-56
2022/05/06 09:10:24;;;;;;;;;6.75;6.25;;;;;20.50;40.16;102116.53;5078745;27;45353;-57
2022/05/06 09:12:53;;;;;;;;;6.75;6.25;;;;;20.50;40.04;102113.00;5077264;28;45342;-55
2022/05/06 09:18:05;;;;;;;;;8.00;8.00;;;;;20.50;40.57;102110.38;5078340;28;45325;-57
2022/05/06 09:20:30;;;;;;;;;8.75;8.00;;;;;20.52;40.23;102121.72;5078818;27;45447;-58
2022/05/06 09:22:57;;;;;;;;;9.00;7.00;;;;;20.51;40.35;102115.56;5077549;28;45423;-57
2022/05/06 09:25:38;;;;;;;;;6.00;6.00;;;;;20.53;40.49;102105.00;5078250;27;47018;-57
2022/05/06 09:28:06;;;;;;;;;9.75;6.00;;;;;20.54;40.21;102101.47;5078377;27;45285;-58
2022/05/06 09:30:32;;;;;;;;;5.75;4.75;;;;;20.53;40.10;102095.31;5078011;27;45517;-58
2022/05/06 09:32:58;;;;;;;;;8.50;6.75;;;;;20.54;39.92;102101.47;5078537;28;45363;-57
2022/05/06 09:35:28;;;;;;;;;6.25;6.00;;;;;20.54;40.33;102097.03;5078047;27;46052;-54
2022/05/06 09:37:54;;;;;;;;;6.50;4.75;;;;;20.56;40.04;102096.97;5078118;27;45271;-54
2022/05/06 09:40:29;;;;;;;;;7.75;6.00;;;;;20.57;40.49;102098.69;5078151;27;45299;-57
2022/05/06 09:42:54;;;;;;;;;7.25;6.00;;;;;20.58;39.93;102105.69;5078377;27;45270;-59
2022/05/06 09:45:33;;;;;;;;;7.00;6.33;;;;;20.59;39.86;102110.03;5077802;28;46059;-58
2022/05/06 09:48:00;;;;;;;;;7.25;7.25;;;;;20.58;40.18;102097.78;5077737;27;45352;-57
2022/05/06 09:50:44;;;;;;;;;6.00;6.00;;;;;20.59;40.38;102093.41;5078008;27;45314;-56
2022/05/06 09:53:12;;;;;;;;;7.50;7.50;;;;;20.57;39.87;102087.31;5078345;27;45185;-59
2022/05/06 09:55:41;;;;;;;;;8.50;7.00;;;;;20.60;40.35;102089.84;5078011;27;46921;-55
2022/05/06 09:58:08;;;;;;;;;5.50;5.50;;;;;20.61;40.21;102084.53;5077710;27;45966;-58
2022/05/06 10:00:34;;;;;;;;;5.75;4.75;;;;;20.56;39.86;102075.91;5077820;27;45267;-58
2022/05/06 10:03:01;;;;;;;;;8.25;7.25;;;;;20.62;39.68;102080.09;5077894;27;45607;-55
2022/05/06 10:05:28;;;;;;;;;8.75;6.00;;;;;20.63;40.19;102082.69;5076202;28;48277;-53
2022/05/06 10:08:08;;;;;;;;;7.00;6.25;;;;;20.64;39.80;102083.53;5076386;28;46310;-58
2022/05/06 10:10:38;;;;;;;;;6.25;6.00;;;;;20.65;39.68;102090.53;5077642;27;45322;-60
2022/05/06 10:13:25;;;;;;;;;5.00;5.00;;;;;20.64;39.64;102081.78;5077789;27;45233;-57
2022/05/06 10:15:53;;;;;;;;;6.00;6.00;;;;;20.64;40.23;102081.78;5077076;27;46057;-59
2022/05/06 10:18:38;;;;;;;;;6.50;5.75;;;;;20.66;39.74;102090.50;5076210;28;45737;-59
2022/05/06 10:21:05;;;;;;;;;7.00;6.75;;;;;20.66;39.84;102084.34;5077469;27;45443;-57
2022/05/06 10:23:56;;;;;;;;;5.50;5.50;;;;;20.67;39.81;102086.91;5076746;27;45415;-58
2022/05/06 10:26:34;;;;;;;;;6.00;6.00;;;;;20.67;39.57;102084.28;5077113;28;46930;-59
2022/05/06 10:34:30;;;;;;;;;7.50;7.50;;;;;20.68;39.83;102083.38;5077457;28;45227;-55
2022/05/06 10:37:01;;;;;;;;;10.00;10.00;;;;;20.68;39.41;102078.09;5076965;27;46362;-57
2022/05/06 10:39:36;;;;;;;;;7.25;5.50;;;;;20.70;39.62;102075.44;5077119;28;45316;-57
2022/05/06 10:42:10;;;;;;;;;8.00;8.00;;;;;20.70;39.56;102076.28;5077217;27;45329;-58
2022/05/06 10:44:36;;;;;;;;;8.00;6.75;;;;;20.72;39.41;102070.09;5077360;27;45587;-58
2022/05/06 10:47:22;;;;;;;;;5.00;5.00;;;;;20.72;39.38;102070.09;5076669;27;46651;-56
2022/05/06 10:49:52;;;;;;;;;7.00;7.00;;;;;20.72;39.76;102067.47;5062822;27;45960;-56
2022/05/06 10:52:20;;;;;;;;;6.00;6.00;;;;;20.72;39.83;102062.19;5077035;27;45418;-57
2022/05/06 10:54:48;;;;;;;;;7.50;6.00;;;;;20.72;39.80;102059.56;5077126;28;45385;-51
2022/05/06 10:57:15;;;;;;;;;7.00;6.00;;;;;20.73;39.24;102061.28;5076983;27;46147;-55
2022/05/06 11:00:02;;;;;;;;;9.25;8.00;;;;;20.74;39.59;102060.38;5076998;27;45336;-58
2022/05/06 11:02:32;;;;;;;;;6.00;6.00;;;;;20.76;39.23;102055.94;5076930;28;45242;-58
2022/05/06 11:05:03;;;;;;;;;7.00;7.00;;;;;20.76;39.44;102055.94;5076985;27;45486;-58
2022/05/06 11:07:30;;;;;;;;;5.00;5.00;;;;;20.76;39.17;102053.31;5076643;27;45255;-57
2022/05/06 11:09:59;;;;;;;;;8.00;6.75;;;;;20.77;39.17;102052.41;5076728;27;45413;-58
2022/05/06 11:12:28;;;;;;;;;6.00;6.00;;;;;20.77;39.12;102045.34;5076871;27;45388;-57
2022/05/06 11:14:54;;;;;;;;;5.00;5.00;;;;;20.77;39.23;102050.59;5075401;28;45265;-59
2022/05/06 11:17:20;;;;;;;;;6.00;5.75;;;;;20.74;39.54;102045.44;5076452;27;46294;-57
2022/05/06 11:19:46;;;;;;;;;8.50;6.00;;;;;20.78;39.08;102031.25;5075521;28;46022;-50
2022/05/06 11:22:11;;;;;;;;;7.00;6.00;;;;;20.79;39.05;102037.34;5075683;28;45894;-58
2022/05/06 11:24:37;;;;;;;;;6.25;5.00;;;;;20.79;39.37;102032.09;5076457;28;45403;-57
2022/05/06 11:27:15;;;;;;;;;10.00;7.00;;;;;20.79;39.55;102037.34;5076348;27;46327;-58
2022/05/06 11:30:00;;;;;;;;;6.00;4.00;;;;;20.77;39.26;102026.03;5076436;27;45803;-57
2022/05/06 11:32:29;;;;;;;;;5.25;4.25;;;;;20.79;39.02;102029.44;5076437;27;45400;-58
2022/05/06 11:34:57;;;;;;;;;7.00;6.00;;;;;20.80;39.04;102028.53;5076041;28;45538;-56
2022/05/06 11:37:28;;;;;;;;;5.75;5.75;;;;;20.77;39.10;102020.78;5080004;28;45483;-56
2022/05/06 11:40:18;;;;;;;;;6.25;5.75;;;;;20.79;39.50;102025.06;5080017;28;45280;-58
2022/05/06 11:42:40;;;;;;;;;6.00;6.00;;;;;20.79;39.36;102017.16;5080034;28;45279;-58
2022/05/06 11:47:50;;;;;;;;;7.00;7.00;;;;;20.80;39.35;102026.78;5079487;28;45693;-58
2022/05/06 11:50:16;;;;;;;;;6.75;6.25;;;;;20.79;39.07;102017.16;5080175;28;45427;-58
2022/05/06 11:52:45;;;;;;;;;7.00;6.25;;;;;20.81;39.36;102014.44;5079773;27;45445;-58
2022/05/06 11:55:11;;;;;;;;;7.50;6.00;;;;;20.81;39.11;102011.81;5080044;27;45567;-58
2022/05/06 11:57:39;;;;;;;;;9.00;6.50;;;;;20.80;39.03;102018.00;5079562;27;45436;-57
2022/05/06 12:00:06;;;;;;;;;8.75;5.75;;;;;20.81;39.11;102014.44;5079545;28;45321;-57